Time;durP1;ratioP1;P1;durP2;ratioP2;P2;SDS_P1;SDS_P2;PMS_P1;PMS_P2;Temp;Humidity;BMP_temperature;BMP_pressure;BME280_temperature;BME280_humidity;BME280_pressure;Samples;Min_cycle;Max_cycle;Signal;HPM_P1;HPM_P2
2023/11/23 00:01:33;;;;;;;18.15;9.80;;;;;;;;;;4989160;28;20033;-52
2023/11/23 00:03:59;;;;;;;19.55;11.68;;;;;;;;;;5009634;28;20516;-56
2023/11/23 00:06:26;;;;;;;16.30;8.60;;;;;;;;;;5063257;22;20072;-63
2023/11/23 00:08:51;;;;;;;17.33;9.27;;;;;;;;;;5079460;28;20031;-62
2023/11/23 00:11:17;;;;;;;16.27;9.15;;;;;;;;;;5076810;28;20020;-62
2023/11/23 00:13:43;;;;;;;12.45;6.97;;;;;;;;;;5077737;28;20028;-63
2023/11/23 00:16:09;;;;;;;27.90;11.77;;;;;;;;;;5079313;28;20066;-63
2023/11/23 00:18:35;;;;;;;12.38;7.07;;;;;;;;;;5079292;28;20061;-62
2023/11/23 00:21:01;;;;;;;12.50;7.20;;;;;;;;;;5078132;28;20056;-62
2023/11/23 00:23:27;;;;;;;17.33;9.48;;;;;;;;;;5079553;28;20111;-63
2023/11/23 00:25:53;;;;;;;14.40;8.80;;;;;;;;;;5078847;28;20036;-62
2023/11/23 00:28:19;;;;;;;18.42;9.50;;;;;;;;;;5077407;28;20082;-62
2023/11/23 00:30:45;;;;;;;15.27;8.73;;;;;;;;;;5077672;28;20029;-63
2023/11/23 00:33:12;;;;;;;16.30;11.20;;;;;;;;;;5079999;28;20482;-63
2023/11/23 00:35:38;;;;;;;14.75;8.18;;;;;;;;;;5079590;28;20111;-62
2023/11/23 00:38:08;;;;;;;26.98;14.32;;;;;;;;;;5080231;28;20586;-62
2023/11/23 00:40:34;;;;;;;16.10;9.05;;;;;;;;;;5076770;28;20096;-62
2023/11/23 00:43:00;;;;;;;12.75;7.10;;;;;;;;;;5077912;28;20056;-62
2023/11/23 00:45:26;;;;;;;13.40;8.65;;;;;;;;;;5079557;28;20052;-62
2023/11/23 00:47:53;;;;;;;12.95;7.40;;;;;;;;;;5079611;28;20023;-63
2023/11/23 00:50:19;;;;;;;14.73;8.70;;;;;;;;;;5078496;28;20020;-63
2023/11/23 00:52:45;;;;;;;14.82;8.57;;;;;;;;;;5078103;28;20031;-62
2023/11/23 00:55:11;;;;;;;12.05;6.93;;;;;;;;;;5077578;28;20043;-61
2023/11/23 00:57:38;;;;;;;20.73;9.27;;;;;;;;;;5077607;28;20040;-62
2023/11/23 01:00:07;;;;;;;11.95;7.15;;;;;;;;;;5077196;28;20043;-63
2023/11/23 01:02:33;;;;;;;;;;;;;;;;;;5078347;28;20061;-62
2023/11/23 01:04:59;;;;;;;21.58;13.30;;;;;;;;;;5076485;28;19955;-62
2023/11/23 01:07:25;;;;;;;16.08;10.07;;;;;;;;;;5077438;28;20028;-62
2023/11/23 01:09:51;;;;;;;26.02;14.93;;;;;;;;;;5077742;28;20020;-62
2023/11/23 01:12:17;;;;;;;12.45;7.45;;;;;;;;;;5077848;28;20024;-61
2023/11/23 01:14:43;;;;;;;11.27;6.80;;;;;;;;;;5078707;28;20059;-62
2023/11/23 01:17:09;;;;;;;12.02;6.97;;;;;;;;;;5077333;28;20032;-63
2023/11/23 01:19:35;;;;;;;16.67;11.23;;;;;;;;;;5077222;28;20033;-62
2023/11/23 01:22:01;;;;;;;16.65;11.27;;;;;;;;;;5077085;28;20032;-62
2023/11/23 01:24:27;;;;;;;22.15;13.07;;;;;;;;;;5077217;28;20021;-63
2023/11/23 01:26:53;;;;;;;15.25;9.68;;;;;;;;;;5077970;28;20028;-63
2023/11/23 01:29:19;;;;;;;18.23;13.45;;;;;;;;;;5077660;28;20045;-62
2023/11/23 01:31:45;;;;;;;12.48;7.85;;;;;;;;;;5077532;28;20100;-62
2023/11/23 01:34:11;;;;;;;13.30;8.25;;;;;;;;;;5077753;28;20482;-62
2023/11/23 01:36:37;;;;;;;21.90;10.65;;;;;;;;;;5077099;28;20028;-63
2023/11/23 01:39:04;;;;;;;18.27;12.07;;;;;;;;;;5077724;28;20105;-62
2023/11/23 01:41:30;;;;;;;13.07;8.30;;;;;;;;;;5075949;28;20021;-61
2023/11/23 01:43:56;;;;;;;14.68;8.00;;;;;;;;;;5077633;28;20426;-62
2023/11/23 01:46:22;;;;;;;16.23;9.23;;;;;;;;;;5076098;28;20393;-60
2023/11/23 01:48:49;;;;;;;12.25;7.47;;;;;;;;;;5075820;28;20048;-63
2023/11/23 01:51:16;;;;;;;20.13;11.50;;;;;;;;;;5075518;28;20017;-62
2023/11/23 01:53:42;;;;;;;21.55;14.82;;;;;;;;;;5077498;28;20028;-62
2023/11/23 01:56:10;;;;;;;15.10;9.55;;;;;;;;;;5077760;28;20027;-62
2023/11/23 01:58:36;;;;;;;18.85;12.23;;;;;;;;;;5076273;28;20021;-62
2023/11/23 02:01:04;;;;;;;25.33;15.95;;;;;;;;;;5076203;28;20114;-63
2023/11/23 02:03:30;;;;;;;15.73;11.00;;;;;;;;;;5075579;28;20063;-63
2023/11/23 02:05:56;;;;;;;29.65;16.63;;;;;;;;;;5076599;28;20753;-63
2023/11/23 02:08:22;;;;;;;21.00;12.88;;;;;;;;;;5075685;28;20027;-60
2023/11/23 02:10:48;;;;;;;23.83;14.55;;;;;;;;;;5073232;28;20016;-62
2023/11/23 02:13:14;;;;;;;16.42;9.98;;;;;;;;;;5074008;28;20024;-60
2023/11/23 02:15:41;;;;;;;22.52;13.50;;;;;;;;;;5075316;28;20031;-60
2023/11/23 02:18:07;;;;;;;19.23;12.60;;;;;;;;;;5075408;28;20100;-60
2023/11/23 02:20:33;;;;;;;18.40;10.57;;;;;;;;;;5073066;28;20036;-61
2023/11/23 02:23:03;;;;;;;20.38;12.50;;;;;;;;;;5077141;28;20090;-62
2023/11/23 02:25:29;;;;;;;12.52;8.00;;;;;;;;;;5077232;28;20032;-61
2023/11/23 02:27:55;;;;;;;13.95;9.20;;;;;;;;;;5077361;28;20405;-61
2023/11/23 02:30:21;;;;;;;14.65;9.65;;;;;;;;;;5076254;28;20024;-62
2023/11/23 02:32:49;;;;;;;13.57;8.57;;;;;;;;;;5077145;28;20040;-61
2023/11/23 02:35:17;;;;;;;31.05;11.25;;;;;;;;;;5077840;28;20077;-62
2023/11/23 02:37:43;;;;;;;23.58;15.02;;;;;;;;;;5076622;28;20063;-61
2023/11/23 02:40:10;;;;;;;18.48;12.43;;;;;;;;;;5076184;28;20036;-62
2023/11/23 02:42:38;;;;;;;31.08;19.98;;;;;;;;;;5075359;28;20609;-61
2023/11/23 02:45:05;;;;;;;12.38;8.05;;;;;;;;;;5075794;28;20016;-65
2023/11/23 02:47:31;;;;;;;22.75;14.45;;;;;;;;;;5076152;28;20024;-61
2023/11/23 02:49:57;;;;;;;23.48;14.98;;;;;;;;;;5075340;28;20028;-63
2023/11/23 02:52:23;;;;;;;22.58;13.30;;;;;;;;;;5076145;28;20052;-62
2023/11/23 02:54:49;;;;;;;16.02;10.10;;;;;;;;;;5076630;28;20033;-62
2023/11/23 02:57:15;;;;;;;19.77;13.23;;;;;;;;;;5078096;28;20032;-62
2023/11/23 02:59:41;;;;;;;23.77;13.35;;;;;;;;;;5079747;28;20028;-62
2023/11/23 03:02:08;;;;;;;17.48;12.73;;;;;;;;;;5079706;28;20040;-62
2023/11/23 03:04:34;;;;;;;13.25;8.55;;;;;;;;;;5078400;28;20047;-61
2023/11/23 03:07:00;;;;;;;30.55;17.48;;;;;;;;;;5079541;28;20028;-61
2023/11/23 03:09:26;;;;;;;30.55;18.90;;;;;;;;;;5079215;28;20028;-61
2023/11/23 03:11:52;;;;;;;14.07;9.45;;;;;;;;;;5078765;28;20104;-62
2023/11/23 03:14:18;;;;;;;11.65;6.95;;;;;;;;;;5079259;28;20031;-62
2023/11/23 03:16:44;;;;;;;16.08;9.20;;;;;;;;;;5077305;28;20033;-63
2023/11/23 03:19:10;;;;;;;18.08;11.00;;;;;;;;;;5079833;28;20060;-62
2023/11/23 03:21:37;;;;;;;15.20;11.25;;;;;;;;;;5078621;28;20036;-62
2023/11/23 03:24:03;;;;;;;20.00;10.20;;;;;;;;;;5078877;28;20075;-61
2023/11/23 03:26:29;;;;;;;17.63;9.75;;;;;;;;;;5079373;28;20021;-61
2023/11/23 03:28:55;;;;;;;24.80;12.27;;;;;;;;;;5079450;28;20032;-61
2023/11/23 03:31:21;;;;;;;19.40;11.18;;;;;;;;;;5078028;28;20024;-62
2023/11/23 03:33:47;;;;;;;23.30;13.25;;;;;;;;;;5079059;28;20616;-61
2023/11/23 03:36:13;;;;;;;39.80;20.67;;;;;;;;;;5078227;28;20035;-62
2023/11/23 03:38:39;;;;;;;12.40;7.30;;;;;;;;;;5077864;28;20048;-62
2023/11/23 03:41:05;;;;;;;15.52;11.98;;;;;;;;;;5078015;28;20054;-62
2023/11/23 03:43:31;;;;;;;16.73;9.82;;;;;;;;;;5078521;28;20028;-62
2023/11/23 03:45:57;;;;;;;23.95;14.10;;;;;;;;;;5078669;28;20119;-61
2023/11/23 03:48:23;;;;;;;22.20;16.23;;;;;;;;;;5078786;28;20545;-61
2023/11/23 03:50:50;;;;;;;19.08;8.93;;;;;;;;;;5078135;28;20500;-62
2023/11/23 03:53:16;;;;;;;17.58;10.25;;;;;;;;;;5077429;28;20040;-62
2023/11/23 03:55:42;;;;;;;17.60;10.13;;;;;;;;;;5079195;28;20416;-62
2023/11/23 03:58:07;;;;;;;24.23;14.80;;;;;;;;;;5078615;28;20048;-62
2023/11/23 04:00:34;;;;;;;21.27;14.80;;;;;;;;;;5078053;28;20055;-62
2023/11/23 04:03:01;;;;;;;13.57;8.63;;;;;;;;;;5078656;28;20398;-59
2023/11/23 04:05:27;;;;;;;20.58;11.15;;;;;;;;;;5078640;28;20536;-62
2023/11/23 04:07:53;;;;;;;16.98;11.57;;;;;;;;;;5076357;28;20028;-61
2023/11/23 04:10:19;;;;;;;17.80;11.95;;;;;;;;;;5077641;28;20104;-61
2023/11/23 04:12:47;;;;;;;17.52;11.88;;;;;;;;;;5078421;28;20078;-61
2023/11/23 04:15:13;;;;;;;21.05;13.68;;;;;;;;;;5078007;28;20103;-61
2023/11/23 04:17:39;;;;;;;19.40;14.05;;;;;;;;;;5078050;28;20063;-62
2023/11/23 04:20:05;;;;;;;20.70;11.00;;;;;;;;;;5077310;28;20071;-62
2023/11/23 04:22:31;;;;;;;31.98;20.77;;;;;;;;;;5078325;28;20107;-61
2023/11/23 04:24:58;;;;;;;25.10;15.02;;;;;;;;;;5078466;28;20024;-61
2023/11/23 04:27:24;;;;;;;14.48;9.25;;;;;;;;;;5078205;28;20020;-62
2023/11/23 04:29:50;;;;;;;26.40;19.10;;;;;;;;;;5077329;28;20052;-62
2023/11/23 04:32:16;;;;;;;26.60;15.20;;;;;;;;;;5077605;28;20031;-62
2023/11/23 04:34:42;;;;;;;25.20;14.75;;;;;;;;;;5077007;28;20084;-60
2023/11/23 04:37:08;;;;;;;19.70;15.43;;;;;;;;;;5076053;28;20028;-61
2023/11/23 04:39:34;;;;;;;21.80;12.07;;;;;;;;;;5076634;28;20039;-61
2023/11/23 04:42:00;;;;;;;20.25;14.48;;;;;;;;;;5058714;28;20032;-61
2023/11/23 04:44:27;;;;;;;36.97;20.60;;;;;;;;;;5077593;28;20036;-60
2023/11/23 04:46:53;;;;;;;23.42;15.50;;;;;;;;;;5076292;28;20058;-62
2023/11/23 04:49:19;;;;;;;29.55;16.88;;;;;;;;;;5076541;28;20032;-61
2023/11/23 04:51:45;;;;;;;28.30;16.00;;;;;;;;;;5076733;28;20030;-61
2023/11/23 04:54:12;;;;;;;17.60;12.68;;;;;;;;;;5076202;28;20025;-61
2023/11/23 04:56:38;;;;;;;27.70;15.27;;;;;;;;;;5076962;28;20025;-62
2023/11/23 04:59:04;;;;;;;13.15;8.32;;;;;;;;;;5077303;28;20085;-62
2023/11/23 05:01:30;;;;;;;19.30;13.30;;;;;;;;;;5076218;28;20475;-60
2023/11/23 05:03:56;;;;;;;33.95;20.13;;;;;;;;;;5076278;28;20063;-62
2023/11/23 05:06:22;;;;;;;31.15;17.27;;;;;;;;;;5076861;28;20051;-62
2023/11/23 05:08:48;;;;;;;31.98;20.05;;;;;;;;;;5075287;28;20055;-62
2023/11/23 05:11:14;;;;;;;21.77;14.90;;;;;;;;;;5075515;28;20028;-62
2023/11/23 05:13:40;;;;;;;38.90;17.80;;;;;;;;;;5076369;28;20489;-61
2023/11/23 05:16:07;;;;;;;30.38;16.40;;;;;;;;;;5074984;28;20031;-62
2023/11/23 05:18:33;;;;;;;42.55;25.05;;;;;;;;;;5076260;28;20025;-62
2023/11/23 05:20:59;;;;;;;45.67;26.83;;;;;;;;;;5073960;28;20028;-63
2023/11/23 05:23:25;;;;;;;26.83;17.00;;;;;;;;;;5076919;28;20467;-61
2023/11/23 05:25:51;;;;;;;32.55;19.83;;;;;;;;;;5077242;28;20052;-61
2023/11/23 05:28:17;;;;;;;25.80;16.17;;;;;;;;;;5077230;28;20104;-62
2023/11/23 05:30:45;;;;;;;25.90;15.93;;;;;;;;;;5075980;28;20023;-62
2023/11/23 05:33:11;;;;;;;34.55;17.83;;;;;;;;;;5076800;28;20030;-62
2023/11/23 05:35:37;;;;;;;24.40;14.02;;;;;;;;;;5074831;28;20036;-62
2023/11/23 05:38:03;;;;;;;14.70;9.25;;;;;;;;;;5076513;28;20478;-61
2023/11/23 05:40:29;;;;;;;35.63;20.55;;;;;;;;;;5074452;28;20482;-61
2023/11/23 05:42:55;;;;;;;17.38;10.27;;;;;;;;;;5073750;28;20035;-61
2023/11/23 05:45:22;;;;;;;17.92;11.75;;;;;;;;;;5074062;28;20031;-60
2023/11/23 05:47:48;;;;;;;19.98;12.80;;;;;;;;;;5074883;28;20025;-61
2023/11/23 05:50:14;;;;;;;24.80;14.20;;;;;;;;;;5074100;28;20078;-61
2023/11/23 05:52:42;;;;;;;19.85;11.43;;;;;;;;;;5074564;28;20024;-60
2023/11/23 05:55:09;;;;;;;33.30;19.85;;;;;;;;;;5074248;28;20629;-60
2023/11/23 05:57:35;;;;;;;28.40;15.63;;;;;;;;;;5073812;28;20452;-61
2023/11/23 06:00:04;;;;;;;17.63;9.77;;;;;;;;;;5074931;28;20035;-61
2023/11/23 06:02:29;;;;;;;24.17;14.48;;;;;;;;;;5074048;28;20069;-61
2023/11/23 06:04:55;;;;;;;31.40;18.05;;;;;;;;;;5075842;28;20025;-60
2023/11/23 06:07:21;;;;;;;23.48;13.98;;;;;;;;;;5075734;28;20028;-57
2023/11/23 06:09:48;;;;;;;22.50;12.45;;;;;;;;;;5075918;28;20035;-63
2023/11/23 06:12:14;;;;;;;17.95;8.23;;;;;;;;;;5076146;28;20036;-62
2023/11/23 06:14:40;;;;;;;20.25;10.48;;;;;;;;;;5074638;28;20462;-64
2023/11/23 06:17:14;;;;;;;15.55;9.77;;;;;;;;;;5075395;28;20619;-64
2023/11/23 06:19:41;;;;;;;20.30;13.80;;;;;;;;;;5074427;28;20072;-63
2023/11/23 06:22:07;;;;;;;22.95;14.82;;;;;;;;;;5076657;28;20513;-64
2023/11/23 06:24:33;;;;;;;36.35;11.65;;;;;;;;;;5076142;28;20033;-64
2023/11/23 06:26:59;;;;;;;12.52;8.52;;;;;;;;;;5076305;28;20422;-63
2023/11/23 06:29:25;;;;;;;17.95;12.57;;;;;;;;;;5075533;28;20021;-63
2023/11/23 06:31:51;;;;;;;28.90;17.23;;;;;;;;;;5078909;28;20025;-63
2023/11/23 06:34:17;;;;;;;26.83;14.27;;;;;;;;;;5080398;28;20036;-64
2023/11/23 06:36:44;;;;;;;21.25;12.00;;;;;;;;;;5080312;28;20020;-62
2023/11/23 06:39:11;;;;;;;19.60;10.93;;;;;;;;;;5079164;28;20112;-63
2023/11/23 06:41:37;;;;;;;27.65;16.13;;;;;;;;;;5079752;28;20036;-63
2023/11/23 06:44:03;;;;;;;22.60;12.00;;;;;;;;;;5079426;28;20029;-64
2023/11/23 06:46:29;;;;;;;30.60;19.52;;;;;;;;;;5079926;28;20260;-62
2023/11/23 06:48:56;;;;;;;37.63;15.88;;;;;;;;;;5080235;28;20110;-61
2023/11/23 06:51:22;;;;;;;27.55;17.38;;;;;;;;;;5079329;28;20044;-63
2023/11/23 06:53:48;;;;;;;30.52;18.48;;;;;;;;;;5079465;28;20024;-63
2023/11/23 06:56:15;;;;;;;26.77;11.65;;;;;;;;;;5079779;28;20021;-62
2023/11/23 06:58:41;;;;;;;23.08;11.63;;;;;;;;;;5078888;28;20031;-63
2023/11/23 07:01:10;;;;;;;21.60;13.88;;;;;;;;;;5079180;28;20021;-62
2023/11/23 07:03:37;;;;;;;19.70;11.07;;;;;;;;;;5078947;28;20028;-62
2023/11/23 07:06:03;;;;;;;18.60;12.40;;;;;;;;;;5078364;28;20116;-64
2023/11/23 07:08:29;;;;;;;29.63;18.55;;;;;;;;;;5078576;28;20159;-62
2023/11/23 07:10:55;;;;;;;28.73;17.75;;;;;;;;;;5077455;28;20017;-59
2023/11/23 07:13:21;;;;;;;19.13;11.77;;;;;;;;;;5078565;28;20054;-64
2023/11/23 07:15:47;;;;;;;18.77;11.48;;;;;;;;;;5077366;28;20029;-64
2023/11/23 07:18:13;;;;;;;24.48;16.20;;;;;;;;;;5076893;28;20028;-63
2023/11/23 07:20:41;;;;;;;30.08;16.92;;;;;;;;;;5077472;28;20104;-63
2023/11/23 07:23:07;;;;;;;20.92;12.48;;;;;;;;;;5078382;28;20024;-63
2023/11/23 07:25:35;;;;;;;27.33;15.90;;;;;;;;;;5078893;28;20154;-61
2023/11/23 07:28:01;;;;;;;13.05;7.97;;;;;;;;;;5077332;28;20066;-62
2023/11/23 07:30:27;;;;;;;17.45;9.40;;;;;;;;;;5076865;28;20041;-63
2023/11/23 07:32:53;;;;;;;28.10;13.30;;;;;;;;;;5077849;28;20097;-62
2023/11/23 07:35:19;;;;;;;19.73;13.00;;;;;;;;;;5077658;28;20036;-59
2023/11/23 07:37:46;;;;;;;21.35;12.48;;;;;;;;;;5075544;28;20016;-61
2023/11/23 07:40:12;;;;;;;33.42;17.60;;;;;;;;;;5076637;28;20104;-59
2023/11/23 07:42:42;;;;;;;24.58;14.05;;;;;;;;;;5076986;28;20108;-62
2023/11/23 07:45:08;;;;;;;18.48;9.82;;;;;;;;;;5077695;28;20028;-63
2023/11/23 07:47:35;;;;;;;24.38;14.80;;;;;;;;;;5076801;28;20016;-62
2023/11/23 07:50:01;;;;;;;19.50;11.32;;;;;;;;;;5074395;28;20024;-62
2023/11/23 07:52:27;;;;;;;24.15;15.43;;;;;;;;;;5077140;28;20038;-62
2023/11/23 07:54:53;;;;;;;15.45;9.43;;;;;;;;;;5077447;28;20024;-62
2023/11/23 07:57:19;;;;;;;16.13;8.90;;;;;;;;;;5076753;28;20070;-61
2023/11/23 07:59:46;;;;;;;22.88;13.40;;;;;;;;;;5073304;28;20480;-63
2023/11/23 08:02:12;;;;;;;18.80;11.50;;;;;;;;;;5063901;28;20084;-62
2023/11/23 08:04:38;;;;;;;18.25;11.85;;;;;;;;;;5068055;28;20033;-61
2023/11/23 08:07:04;;;;;;;22.67;15.25;;;;;;;;;;5057717;28;20025;-60
2023/11/23 08:09:30;;;;;;;24.42;15.15;;;;;;;;;;5068989;28;20127;-61
2023/11/23 08:11:57;;;;;;;14.68;9.38;;;;;;;;;;5076875;28;20031;-62
2023/11/23 08:14:23;;;;;;;19.60;10.15;;;;;;;;;;5075872;28;20016;-63
2023/11/23 08:16:49;;;;;;;14.40;7.70;;;;;;;;;;5073673;28;20013;-62
2023/11/23 08:19:15;;;;;;;9.73;5.72;;;;;;;;;;5056859;28;20091;-63
2023/11/23 08:21:42;;;;;;;19.08;8.77;;;;;;;;;;5057262;28;20048;-63
2023/11/23 08:24:08;;;;;;;19.92;12.48;;;;;;;;;;5056017;28;20116;-60
2023/11/23 08:26:35;;;;;;;22.92;12.57;;;;;;;;;;5056998;28;20545;-59
2023/11/23 08:29:03;;;;;;;21.77;13.07;;;;;;;;;;5057647;28;20023;-60
2023/11/23 08:31:29;;;;;;;30.23;11.38;;;;;;;;;;5054315;28;20025;-61
2023/11/23 08:33:55;;;;;;;22.88;12.43;;;;;;;;;;5059044;28;20020;-61
2023/11/23 08:36:22;;;;;;;16.27;8.63;;;;;;;;;;5076018;28;20029;-62
2023/11/23 08:38:49;;;;;;;20.17;12.50;;;;;;;;;;5076192;28;20020;-62
2023/11/23 08:41:18;;;;;;;17.02;8.77;;;;;;;;;;5075746;28;20047;-61
2023/11/23 08:43:44;;;;;;;21.33;12.27;;;;;;;;;;5076313;28;20039;-62
2023/11/23 08:46:10;;;;;;;12.45;6.82;;;;;;;;;;5076093;28;20143;-60
2023/11/23 08:48:36;;;;;;;17.00;9.10;;;;;;;;;;5074117;28;20044;-52
2023/11/23 08:51:03;;;;;;;17.20;9.88;;;;;;;;;;5069681;28;20016;-54
2023/11/23 08:53:29;;;;;;;18.30;11.25;;;;;;;;;;5069942;28;20115;-53
2023/11/23 08:55:55;;;;;;;12.25;7.50;;;;;;;;;;5069714;28;20028;-50
2023/11/23 08:58:21;;;;;;;18.98;12.25;;;;;;;;;;5070302;28;20032;-56
2023/11/23 09:00:47;;;;;;;19.02;11.05;;;;;;;;;;5069461;28;20104;-57
2023/11/23 09:03:13;;;;;;;20.13;13.27;;;;;;;;;;5069465;28;20027;-54
2023/11/23 09:05:40;;;;;;;27.52;13.73;;;;;;;;;;5069676;28;20481;-54
2023/11/23 09:08:06;;;;;;;20.40;11.73;;;;;;;;;;5069463;28;20017;-56
2023/11/23 09:10:33;;;;;;;19.35;10.50;;;;;;;;;;5069060;28;20495;-54
2023/11/23 09:13:01;;;;;;;15.38;7.47;;;;;;;;;;5069740;28;20093;-56
2023/11/23 09:15:28;;;;;;;13.02;7.50;;;;;;;;;;5070113;28;20032;-55
2023/11/23 09:17:55;;;;;;;15.13;9.40;;;;;;;;;;5069881;28;20032;-56
2023/11/23 09:20:21;;;;;;;22.42;12.52;;;;;;;;;;5069385;28;20031;-55
2023/11/23 09:22:47;;;;;;;15.82;9.73;;;;;;;;;;5069981;28;20029;-54
2023/11/23 09:25:13;;;;;;;19.85;9.88;;;;;;;;;;5069701;28;20505;-52
2023/11/23 09:27:39;;;;;;;12.25;7.65;;;;;;;;;;5069910;28;20148;-53
2023/11/23 09:30:08;;;;;;;25.48;9.88;;;;;;;;;;5068894;28;20515;-52
2023/11/23 09:32:38;;;;;;;18.52;12.23;;;;;;;;;;5069471;28;20024;-51
2023/11/23 09:35:10;;;;;;;17.13;10.30;;;;;;;;;;5067695;28;20418;-53
2023/11/23 09:37:42;;;;;;;15.98;9.70;;;;;;;;;;5049657;28;20041;-51
2023/11/23 09:40:09;;;;;;;16.52;10.02;;;;;;;;;;5048890;28;20500;-56
2023/11/23 09:42:38;;;;;;;15.70;10.18;;;;;;;;;;5049198;28;20044;-55
2023/11/23 09:45:08;;;;;;;20.48;11.15;;;;;;;;;;5047914;28;20112;-53
2023/11/23 09:47:35;;;;;;;14.00;8.70;;;;;;;;;;5049041;28;20068;-54
2023/11/23 09:50:01;;;;;;;15.75;8.70;;;;;;;;;;5048472;28;20029;-57
2023/11/23 09:52:36;;;;;;;22.17;10.40;;;;;;;;;;5049399;28;20033;-54
2023/11/23 09:55:04;;;;;;;16.50;9.80;;;;;;;;;;5049447;28;20028;-53
2023/11/23 09:57:30;;;;;;;21.60;12.67;;;;;;;;;;5047723;28;20029;-56
2023/11/23 09:59:56;;;;;;;16.35;9.77;;;;;;;;;;5048820;28;20112;-54
2023/11/23 10:02:23;;;;;;;15.98;8.57;;;;;;;;;;5058673;28;20024;-53
2023/11/23 10:04:50;;;;;;;20.20;12.32;;;;;;;;;;5068749;28;20024;-58
2023/11/23 10:07:16;;;;;;;23.65;13.57;;;;;;;;;;5068552;28;20128;-54
2023/11/23 10:09:43;;;;;;;15.55;8.48;;;;;;;;;;5069255;28;20582;-56
2023/11/23 10:12:09;;;;;;;21.05;10.98;;;;;;;;;;5068749;28;20029;-56
2023/11/23 10:14:35;;;;;;;18.60;11.23;;;;;;;;;;5069230;28;20566;-53
2023/11/23 10:17:01;;;;;;;15.82;9.32;;;;;;;;;;5068940;28;20399;-56
2023/11/23 10:19:27;;;;;;;16.80;9.30;;;;;;;;;;5068806;28;20028;-55
2023/11/23 10:21:59;;;;;;;17.60;11.32;;;;;;;;;;5068345;28;20028;-54
2023/11/23 10:24:28;;;;;;;20.33;11.10;;;;;;;;;;5068604;28;20412;-54
2023/11/23 10:26:55;;;;;;;16.85;11.00;;;;;;;;;;5068945;28;20016;-55
2023/11/23 10:29:28;;;;;;;12.93;7.97;;;;;;;;;;5068898;28;20028;-55
2023/11/23 10:31:56;;;;;;;12.52;7.45;;;;;;;;;;5068543;28;20028;-55
2023/11/23 10:34:22;;;;;;;;;;;;;;;;;;5069499;28;20036;-55
2023/11/23 10:36:49;;;;;;;14.40;8.82;;;;;;;;;;5068830;28;19904;-56
2023/11/23 10:39:18;;;;;;;18.92;9.63;;;;;;;;;;5068314;28;20040;-60
2023/11/23 10:41:46;;;;;;;10.63;6.20;;;;;;;;;;5068194;28;20093;-56
2023/11/23 10:44:13;;;;;;;22.40;11.13;;;;;;;;;;5068961;28;20507;-55
2023/11/23 10:46:39;;;;;;;13.55;7.85;;;;;;;;;;5068099;28;20029;-56
2023/11/23 10:49:06;;;;;;;14.38;8.30;;;;;;;;;;5068566;28;20028;-53
2023/11/23 10:51:33;;;;;;;16.02;8.45;;;;;;;;;;5068208;28;20405;-51
2023/11/23 10:53:59;;;;;;;15.95;9.95;;;;;;;;;;5068779;28;20520;-52
2023/11/23 10:56:27;;;;;;;11.27;6.63;;;;;;;;;;5068700;28;20027;-53
2023/11/23 10:58:54;;;;;;;14.25;7.95;;;;;;;;;;5068937;28;20020;-55
2023/11/23 11:01:22;;;;;;;19.02;10.88;;;;;;;;;;5068067;28;20364;-55
2023/11/23 11:03:49;;;;;;;28.02;10.70;;;;;;;;;;5068686;28;20020;-55
2023/11/23 11:06:17;;;;;;;14.77;9.35;;;;;;;;;;5067424;28;20651;-56
2023/11/23 11:08:49;;;;;;;16.15;8.45;;;;;;;;;;5068250;28;20017;-58
2023/11/23 11:11:23;;;;;;;17.80;10.65;;;;;;;;;;5067886;28;20029;-56
2023/11/23 11:13:49;;;;;;;17.58;8.98;;;;;;;;;;5068788;28;20032;-51
2023/11/23 11:16:20;;;;;;;15.25;7.72;;;;;;;;;;5068462;28;20067;-55
2023/11/23 11:18:52;;;;;;;18.73;10.70;;;;;;;;;;5071060;28;20020;-55
2023/11/23 11:21:23;;;;;;;11.52;6.43;;;;;;;;;;5071667;28;20024;-53
2023/11/23 11:23:52;;;;;;;17.27;9.85;;;;;;;;;;5072308;28;20016;-54
2023/11/23 11:26:18;;;;;;;16.50;8.85;;;;;;;;;;5074114;28;20457;-51
2023/11/23 11:28:53;;;;;;;19.38;11.23;;;;;;;;;;5092283;28;20056;-54
2023/11/23 11:31:28;;;;;;;14.60;8.15;;;;;;;;;;5091540;28;20020;-52
2023/11/23 11:33:54;;;;;;;14.57;8.52;;;;;;;;;;5092084;28;20016;-57
2023/11/23 11:36:20;;;;;;;22.38;9.93;;;;;;;;;;5091630;28;20169;-50
2023/11/23 11:38:58;;;;;;;16.63;9.02;;;;;;;;;;5090524;28;20031;-52
2023/11/23 11:41:28;;;;;;;18.05;10.70;;;;;;;;;;5091325;28;20020;-54
2023/11/23 11:43:54;;;;;;;12.30;7.18;;;;;;;;;;5090487;28;20520;-53
2023/11/23 11:46:20;;;;;;;15.25;8.77;;;;;;;;;;5070502;28;20034;-56
2023/11/23 11:48:46;;;;;;;15.82;7.97;;;;;;;;;;5070014;28;20086;-54
2023/11/23 11:51:12;;;;;;;13.93;7.80;;;;;;;;;;5071156;28;20028;-54
2023/11/23 11:53:40;;;;;;;17.13;9.73;;;;;;;;;;5072000;28;20483;-54
2023/11/23 11:56:06;;;;;;;19.20;9.40;;;;;;;;;;5071735;28;20107;-51
2023/11/23 11:58:32;;;;;;;16.67;9.82;;;;;;;;;;5071619;28;20397;-56
2023/11/23 12:00:59;;;;;;;11.52;7.07;;;;;;;;;;5069460;28;20107;-51
2023/11/23 12:03:26;;;;;;;23.17;11.95;;;;;;;;;;5052269;28;20382;-52
2023/11/23 12:05:52;;;;;;;17.60;10.05;;;;;;;;;;5065778;22;20511;31
2023/11/23 12:08:19;;;;;;;22.27;11.77;;;;;;;;;;5087067;28;20441;-46
2023/11/23 12:10:45;;;;;;;20.40;12.10;;;;;;;;;;5091537;28;20031;-47
2023/11/23 12:13:14;;;;;;;20.80;11.88;;;;;;;;;;5093010;28;20398;-45
2023/11/23 12:15:44;;;;;;;13.73;8.25;;;;;;;;;;5093409;28;20394;-46
2023/11/23 12:18:14;;;;;;;16.23;10.32;;;;;;;;;;5090777;28;20024;-46
2023/11/23 12:20:41;;;;;;;20.90;9.82;;;;;;;;;;5091309;28;20088;-45
2023/11/23 12:23:08;;;;;;;15.30;8.30;;;;;;;;;;5090086;28;20020;-50
2023/11/23 12:25:35;;;;;;;17.13;10.18;;;;;;;;;;5090446;28;20112;-47
2023/11/23 12:28:04;;;;;;;16.90;8.90;;;;;;;;;;5090065;28;20027;-45
2023/11/23 12:30:31;;;;;;;13.88;7.78;;;;;;;;;;5090749;28;20102;-49
2023/11/23 12:33:00;;;;;;;18.23;9.90;;;;;;;;;;5092163;28;20628;-56
2023/11/23 12:35:26;;;;;;;22.05;10.75;;;;;;;;;;5091266;28;20024;-55
2023/11/23 12:37:52;;;;;;;13.02;8.55;;;;;;;;;;5091826;28;20047;-52
2023/11/23 12:40:18;;;;;;;22.42;10.98;;;;;;;;;;5091394;28;20110;-53
2023/11/23 12:42:46;;;;;;;20.55;11.63;;;;;;;;;;5093838;28;20020;-51
2023/11/23 12:45:12;;;;;;;12.40;7.07;;;;;;;;;;5093523;28;20034;-47
2023/11/23 12:47:39;;;;;;;13.75;8.20;;;;;;;;;;5093115;28;20051;-53
2023/11/23 12:50:10;;;;;;;17.50;9.77;;;;;;;;;;5093702;28;20024;-49
2023/11/23 12:52:37;;;;;;;22.15;11.88;;;;;;;;;;5086469;28;20142;-50
2023/11/23 12:55:05;;;;;;;15.13;8.80;;;;;;;;;;5072276;28;20104;-50
2023/11/23 12:57:31;;;;;;;14.23;9.25;;;;;;;;;;5071687;28;20367;-51
2023/11/23 12:59:57;;;;;;;19.63;10.38;;;;;;;;;;5079354;28;20402;-50
2023/11/23 13:02:23;;;;;;;17.92;9.32;;;;;;;;;;5091255;28;20389;-51
2023/11/23 13:04:49;;;;;;;17.15;9.98;;;;;;;;;;5091104;28;20024;-54
2023/11/23 13:07:15;;;;;;;15.23;8.73;;;;;;;;;;5089714;28;20057;-57
2023/11/23 13:09:41;;;;;;;11.20;6.45;;;;;;;;;;5071466;28;20527;-51
2023/11/23 13:12:09;;;;;;;16.75;10.73;;;;;;;;;;5070625;28;20031;-54
2023/11/23 13:14:35;;;;;;;15.98;9.85;;;;;;;;;;5069831;28;20102;-54
2023/11/23 13:17:02;;;;;;;13.93;8.18;;;;;;;;;;5070351;28;20174;-49
2023/11/23 13:19:31;;;;;;;16.00;9.10;;;;;;;;;;5070834;28;20025;-55
2023/11/23 13:21:57;;;;;;;15.52;9.40;;;;;;;;;;5069886;28;20024;-55
2023/11/23 13:24:24;;;;;;;17.35;8.77;;;;;;;;;;5070860;28;20023;-53
2023/11/23 13:26:51;;;;;;;17.63;9.90;;;;;;;;;;5090103;28;20020;-52
2023/11/23 13:29:17;;;;;;;14.57;8.13;;;;;;;;;;5089268;28;20024;-53
2023/11/23 13:31:43;;;;;;;21.15;8.35;;;;;;;;;;5090288;28;20514;-52
2023/11/23 13:34:10;;;;;;;14.98;8.07;;;;;;;;;;5090602;28;20017;-48
2023/11/23 13:36:36;;;;;;;11.88;6.50;;;;;;;;;;5088828;28;20432;-51
2023/11/23 13:39:03;;;;;;;16.50;9.95;;;;;;;;;;5090763;28;20107;-53
2023/11/23 13:41:30;;;;;;;16.70;9.65;;;;;;;;;;5089109;28;20024;-48
2023/11/23 13:43:56;;;;;;;14.50;7.53;;;;;;;;;;5090639;28;20032;-50
2023/11/23 13:46:22;;;;;;;18.05;9.27;;;;;;;;;;5090668;28;20020;-51
2023/11/23 13:48:50;;;;;;;12.98;6.85;;;;;;;;;;5090732;28;20024;-50
2023/11/23 13:51:20;;;;;;;17.27;9.75;;;;;;;;;;5089314;28;20414;-52
2023/11/23 13:53:47;;;;;;;17.92;8.77;;;;;;;;;;5090589;28;20027;-52
2023/11/23 13:56:14;;;;;;;14.25;8.07;;;;;;;;;;5090234;28;20049;-49
2023/11/23 13:58:40;;;;;;;13.27;7.70;;;;;;;;;;5090309;28;20042;-50
2023/11/23 14:01:06;;;;;;;20.05;9.10;;;;;;;;;;5089499;28;20052;-49
2023/11/23 14:03:34;;;;;;;13.30;7.47;;;;;;;;;;5089853;28;20039;-48
2023/11/23 14:06:04;;;;;;;12.75;7.75;;;;;;;;;;5089887;28;20024;-50
2023/11/23 14:08:30;;;;;;;14.73;8.23;;;;;;;;;;5090228;28;20036;-54
2023/11/23 14:10:57;;;;;;;13.90;8.02;;;;;;;;;;5089535;28;20085;-53
2023/11/23 14:13:23;;;;;;;17.08;9.95;;;;;;;;;;5089908;28;20028;-48
2023/11/23 14:15:49;;;;;;;13.23;8.27;;;;;;;;;;5089869;28;20089;-51
2023/11/23 14:18:17;;;;;;;16.48;9.20;;;;;;;;;;5089815;28;20024;-51
2023/11/23 14:20:43;;;;;;;16.77;10.13;;;;;;;;;;5089334;28;20038;-51